Time;durP1;ratioP1;P1;durP2;ratioP2;P2;SDS_P1;SDS_P2;PMS_P1;PMS_P2;Temp;Humidity;BMP_temperature;BMP_pressure;BME280_temperature;BME280_humidity;BME280_pressure;Samples;Min_cycle;Max_cycle;Signal;HPM_P1;HPM_P2
2021/05/13 00:01:28;;;;;;;5.40;2.53;;;13.00;96.70;;;;;;5125723;27;27351;-68
2021/05/13 00:04:19;;;;;;;3.42;2.45;;;13.00;96.10;;;;;;5125903;27;27406;-68
2021/05/13 00:07:09;;;;;;;4.88;2.20;;;13.00;96.20;;;;;;5126049;27;27399;-68
2021/05/13 00:10:00;;;;;;;4.20;2.53;;;12.90;96.40;;;;;;5126020;27;27459;-68
2021/05/13 00:15:42;;;;;;;3.15;2.33;;;12.90;96.20;;;;;;5126142;27;27440;-68
2021/05/13 00:18:41;;;;;;;3.70;2.55;;;12.90;96.10;;;;;;5125873;27;27390;-68
2021/05/13 00:21:32;;;;;;;3.40;2.90;;;12.90;96.30;;;;;;5125849;27;27458;-69
2021/05/13 00:24:22;;;;;;;4.22;2.65;;;12.90;96.50;;;;;;5110626;27;27391;-69
2021/05/13 00:27:15;;;;;;;3.33;2.30;;;12.90;96.30;;;;;;5126023;27;27483;-68
2021/05/13 00:30:28;;;;;;;4.20;2.95;;;12.80;96.20;;;;;;5126053;27;27363;-69
2021/05/13 00:33:19;;;;;;;5.65;2.67;;;12.80;96.20;;;;;;5125504;27;27345;-69
2021/05/13 00:36:10;;;;;;;4.28;3.10;;;12.80;96.10;;;;;;5125779;27;27421;-69
2021/05/13 00:39:01;;;;;;;4.15;2.75;;;12.80;96.30;;;;;;5109657;27;27026;-69
2021/05/13 00:41:58;;;;;;;5.18;2.67;;;12.80;96.30;;;;;;5125510;27;27977;-70
2021/05/13 00:44:49;;;;;;;6.20;2.75;;;12.80;96.30;;;;;;5125427;27;27336;-69
2021/05/13 00:47:47;;;;;;;4.38;3.00;;;12.80;96.10;;;;;;5125190;27;27372;-69
2021/05/13 00:50:38;;;;;;;3.92;2.60;;;12.80;96.30;;;;;;5125592;27;27367;-69
2021/05/13 00:53:24;;;;;;;3.20;2.70;;;12.70;96.10;;;;;;5125379;27;27474;-70
2021/05/13 00:56:14;;;;;;;5.22;2.95;;;12.70;96.40;;;;;;5109957;27;27416;-70
2021/05/13 00:59:08;;;;;;;4.88;2.80;;;12.70;96.30;;;;;;5125298;27;27485;-69
2021/05/13 01:01:59;;;;;;;4.15;2.45;;;12.70;96.10;;;;;;5103380;28;27638;-70
2021/05/13 01:04:50;;;;;;;4.47;2.72;;;12.70;96.40;;;;;;5104360;28;27891;-69
2021/05/13 01:07:40;;;;;;;4.93;2.63;;;12.70;96.30;;;;;;5104435;28;27419;-68
2021/05/13 01:10:36;;;;;;;3.38;2.53;;;12.60;96.20;;;;;;5104492;28;27332;-69
2021/05/13 01:13:28;;;;;;;4.63;3.40;;;12.60;96.30;;;;;;5104683;28;27316;-69
2021/05/13 01:16:44;;;;;;;4.32;3.03;;;12.60;96.10;;;;;;5103905;28;28043;-69
2021/05/13 01:19:35;;;;;;;4.60;3.05;;;12.60;96.30;;;;;;5104330;28;27393;-70
2021/05/13 01:22:31;;;;;;;4.13;2.85;;;12.60;96.20;;;;;;5104530;28;27427;-69
2021/05/13 01:25:27;;;;;;;3.53;2.53;;;12.60;96.00;;;;;;5090002;28;27471;-70
2021/05/13 01:28:39;;;;;;;3.60;2.65;;;12.50;96.00;;;;;;5104179;28;27485;-69
2021/05/13 01:31:36;;;;;;;7.28;2.90;;;12.50;95.90;;;;;;5103778;28;27442;-69
2021/05/13 01:34:46;;;;;;;4.90;2.90;;;12.50;95.50;;;;;;5104008;28;27581;-69
2021/05/13 01:37:37;;;;;;;3.90;2.38;;;12.50;95.50;;;;;;5104475;28;27381;-69
2021/05/13 01:40:27;;;;;;;4.68;2.97;;;12.40;95.50;;;;;;5104226;28;27472;-69
2021/05/13 01:43:20;;;;;;;6.00;3.10;;;12.40;95.40;;;;;;5103418;28;27332;-69
2021/05/13 01:46:14;;;;;;;8.70;3.47;;;12.40;94.70;;;;;;5088937;28;27466;-70
2021/05/13 01:49:05;;;;;;;3.45;2.83;;;12.40;94.90;;;;;;5104266;28;27360;-70
2021/05/13 01:52:16;;;;;;;2.88;2.65;;;12.30;94.90;;;;;;5102616;28;27485;-70
2021/05/13 01:55:13;;;;;;;4.15;2.70;;;12.30;94.80;;;;;;5101813;28;27393;-69
2021/05/13 01:58:03;;;;;;;3.90;3.10;;;12.20;94.40;;;;;;5099783;28;26898;-70
2021/05/13 02:00:56;;;;;;;4.57;2.80;;;12.20;95.00;;;;;;5105787;27;27436;-69
2021/05/13 02:03:52;;;;;;;6.65;2.95;;;12.20;94.70;;;;;;5124180;27;28030;-69
2021/05/13 02:06:42;;;;;;;4.45;3.30;;;12.10;94.90;;;;;;5124288;27;27455;-69
2021/05/13 02:09:33;;;;;;;3.55;2.90;;;12.10;95.00;;;;;;5123939;27;27025;-69
2021/05/13 02:12:25;;;;;;;4.20;3.13;;;12.10;94.90;;;;;;5091216;27;27478;-69
2021/05/13 02:15:18;;;;;;;3.75;2.80;;;12.10;94.90;;;;;;5124430;27;27488;-69
2021/05/13 02:18:15;;;;;;;4.10;2.92;;;12.00;94.70;;;;;;5109181;27;27383;-68
2021/05/13 02:21:14;;;;;;;6.75;2.78;;;12.00;95.10;;;;;;5124183;27;27457;-68
2021/05/13 02:24:05;;;;;;;4.57;2.65;;;12.00;94.80;;;;;;5123902;27;27487;-66
2021/05/13 02:26:55;;;;;;;4.05;3.20;;;11.90;94.90;;;;;;5124182;27;27420;-67
2021/05/13 02:29:46;;;;;;;3.80;2.78;;;11.90;94.80;;;;;;5123956;27;27418;-66
2021/05/13 02:32:36;;;;;;;6.03;3.42;;;11.90;94.30;;;;;;5124243;27;27492;-67
2021/05/13 02:35:29;;;;;;;5.32;2.97;;;11.80;94.70;;;;;;5108762;27;27410;-66
2021/05/13 02:38:20;;;;;;;6.15;3.05;;;11.80;95.00;;;;;;5123747;27;27328;-64
2021/05/13 02:41:10;;;;;;;4.63;3.05;;;11.80;94.80;;;;;;5123837;27;27430;-66
2021/05/13 02:44:01;;;;;;;4.13;3.05;;;11.70;94.70;;;;;;5123616;27;27552;-65
2021/05/13 02:46:51;;;;;;;6.55;2.78;;;11.70;94.70;;;;;;5124039;27;27458;-65
2021/05/13 02:49:45;;;;;;;3.92;2.88;;;11.60;94.50;;;;;;5123755;27;27856;-65
2021/05/13 02:52:56;;;;;;;3.28;2.97;;;11.60;94.60;;;;;;5123548;27;27538;-65
2021/05/13 02:55:49;;;;;;;3.13;2.58;;;11.50;94.40;;;;;;5108507;27;27500;-65
2021/05/13 02:58:42;;;;;;;3.75;2.90;;;11.60;94.80;;;;;;5094185;27;27521;-65
2021/05/13 03:01:32;;;;;;;6.15;2.80;;;11.50;94.80;;;;;;5120812;27;27400;-64
2021/05/13 03:04:25;;;;;;;4.05;3.05;;;11.50;94.60;;;;;;5126259;27;27465;-64
2021/05/13 03:07:16;;;;;;;4.00;2.72;;;11.50;94.60;;;;;;5127532;27;27467;-64
2021/05/13 03:10:22;;;;;;;8.65;3.35;;;11.40;94.60;;;;;;5127010;27;27348;-64
2021/05/13 03:13:20;;;;;;;3.28;2.97;;;11.40;94.40;;;;;;5113648;27;27915;-64
2021/05/13 03:16:47;;;;;;;6.65;2.95;;;11.30;94.70;;;;;;5108283;27;27446;-64
2021/05/13 03:19:44;;;;;;;4.72;3.17;;;11.30;95.00;;;;;;5126818;27;26952;-64
2021/05/13 03:22:58;;;;;;;5.65;2.67;;;11.30;94.90;;;;;;5125377;27;27378;-64
2021/05/13 03:25:56;;;;;;;3.95;3.05;;;11.30;94.70;;;;;;5126822;27;27894;-64
2021/05/13 03:28:47;;;;;;;3.00;2.70;;;11.20;94.60;;;;;;5126799;27;27392;-64
2021/05/13 03:31:37;;;;;;;3.75;3.10;;;11.20;94.70;;;;;;5126497;27;27464;-64
2021/05/13 03:34:23;;;;;;;6.00;2.78;;;11.20;95.00;;;;;;5127011;27;27390;-64
2021/05/13 03:37:14;;;;;;;4.28;3.28;;;11.20;94.80;;;;;;5111625;27;27400;-64
2021/05/13 03:40:08;;;;;;;3.22;2.80;;;11.10;94.90;;;;;;5126602;27;27481;-63
2021/05/13 03:42:59;;;;;;;5.75;3.47;;;11.10;94.80;;;;;;5126616;27;27411;-63
2021/05/13 03:45:50;;;;;;;3.88;3.10;;;11.10;94.90;;;;;;5107823;27;27435;-63
2021/05/13 03:48:41;;;;;;;6.78;2.88;;;11.10;95.10;;;;;;5126494;27;27337;-63
2021/05/13 03:51:32;;;;;;;4.18;3.10;;;11.00;95.20;;;;;;5126653;27;27419;-63
2021/05/13 03:54:18;;;;;;;3.58;2.33;;;11.00;95.60;;;;;;5107832;27;27406;-63
2021/05/13 03:57:14;;;;;;;6.13;3.10;;;11.00;95.40;;;;;;5107938;27;27339;-63
2021/05/13 04:00:18;;;;;;;4.15;2.75;;;11.00;95.30;;;;;;5123995;27;27401;-63
2021/05/13 04:03:09;;;;;;;5.78;2.83;;;11.00;95.30;;;;;;5087176;27;27453;-62
2021/05/13 04:06:01;;;;;;;3.95;3.10;;;11.00;95.30;;;;;;5111016;27;27450;-62
2021/05/13 04:09:31;;;;;;;5.05;2.70;;;10.90;95.50;;;;;;5096628;27;26959;-63
2021/05/13 04:12:30;;;;;;;4.32;2.97;;;10.90;95.40;;;;;;5125415;27;27695;-63
2021/05/13 04:15:22;;;;;;;3.88;2.95;;;10.90;95.60;;;;;;5121984;27;27411;-62
2021/05/13 04:18:13;;;;;;;3.55;3.08;;;11.00;95.90;;;;;;5110842;27;27360;-62
2021/05/13 04:21:03;;;;;;;5.22;3.03;;;11.00;95.90;;;;;;5125998;27;27477;-62
2021/05/13 04:23:55;;;;;;;3.63;3.05;;;11.00;96.00;;;;;;5125946;27;27395;-62
2021/05/13 04:26:45;;;;;;;4.80;3.42;;;11.00;96.20;;;;;;5125844;27;27444;-62
2021/05/13 04:29:36;;;;;;;4.80;3.38;;;11.10;96.00;;;;;;5122488;27;27576;-62
2021/05/13 04:32:38;;;;;;;8.15;3.70;;;11.00;96.00;;;;;;5107120;27;27419;-62
2021/05/13 04:35:29;;;;;;;8.30;3.97;;;11.10;96.00;;;;;;5125749;27;27439;-62
2021/05/13 04:38:16;;;;;;;7.28;3.40;;;11.10;95.70;;;;;;5125834;27;27386;-61
2021/05/13 04:41:07;;;;;;;5.57;3.35;;;11.10;95.90;;;;;;5125982;27;27526;-62
2021/05/13 04:43:58;;;;;;;4.53;3.45;;;11.20;95.80;;;;;;5125528;27;27387;-62
2021/05/13 04:46:57;;;;;;;4.43;3.78;;;11.20;95.80;;;;;;5125691;27;27431;-62
2021/05/13 04:49:49;;;;;;;4.43;3.60;;;11.20;95.70;;;;;;5110122;27;27391;-61
2021/05/13 04:52:42;;;;;;;7.75;3.67;;;11.30;95.70;;;;;;5106765;27;27431;-62
2021/05/13 04:55:39;;;;;;;5.75;3.70;;;11.40;95.80;;;;;;5122310;27;27407;-62
2021/05/13 04:58:30;;;;;;;5.18;3.53;;;11.40;95.60;;;;;;5125600;27;27493;-62
2021/05/13 05:01:20;;;;;;;5.43;4.05;;;11.40;95.60;;;;;;5086493;28;27459;-61
2021/05/13 05:04:32;;;;;;;5.38;3.97;;;11.50;95.60;;;;;;5100715;28;27341;-62
2021/05/13 05:07:28;;;;;;;4.30;3.88;;;11.50;95.40;;;;;;5103813;28;27467;-62
2021/05/13 05:10:19;;;;;;;5.05;3.88;;;11.60;95.40;;;;;;5104783;28;27495;-62
2021/05/13 05:13:17;;;;;;;4.38;3.85;;;11.60;95.30;;;;;;5104860;28;27408;-61
2021/05/13 05:16:08;;;;;;;5.60;4.00;;;11.60;95.30;;;;;;5104981;28;27506;-62
2021/05/13 05:18:59;;;;;;;6.03;4.05;;;11.60;95.90;;;;;;5104439;28;27336;-61
2021/05/13 05:21:50;;;;;;;7.22;3.42;;;11.70;96.00;;;;;;5103943;28;27485;-61
2021/05/13 05:25:03;;;;;;;5.13;4.63;;;11.70;94.20;;;;;;5104425;28;27517;-62
2021/05/13 05:28:05;;;;;;;5.15;4.18;;;11.70;94.80;;;;;;5101223;28;27457;-61
2021/05/13 05:30:55;;;;;;;6.25;4.35;;;11.70;94.90;;;;;;5104384;28;27458;-62
2021/05/13 05:33:46;;;;;;;5.20;3.97;;;11.80;94.80;;;;;;5104438;28;27414;-62
2021/05/13 05:36:36;;;;;;;4.85;4.15;;;11.80;92.80;;;;;;5085817;28;27464;-63
2021/05/13 05:39:44;;;;;;;4.97;4.45;;;11.80;92.70;;;;;;5104246;28;27470;-61
2021/05/13 05:42:34;;;;;;;6.45;4.50;;;11.90;92.80;;;;;;5102711;28;27577;-62
2021/05/13 05:45:25;;;;;;;5.80;4.10;;;11.90;92.30;;;;;;5104367;28;27338;-61
2021/05/13 05:48:15;;;;;;;6.10;4.90;;;12.00;93.00;;;;;;5104038;28;27384;-63
2021/05/13 05:51:07;;;;;;;8.55;4.40;;;12.00;93.00;;;;;;5100794;28;27423;-61
2021/05/13 05:54:36;;;;;;;5.75;3.63;;;12.00;92.60;;;;;;5100472;28;27402;-63
2021/05/13 05:57:29;;;;;;;4.57;4.10;;;12.10;95.20;;;;;;5103983;28;27414;-63
2021/05/13 06:00:34;;;;;;;7.35;5.13;;;12.20;95.60;;;;;;5088562;28;27320;-61
2021/05/13 06:03:41;;;;;;;6.53;4.28;;;12.30;95.70;;;;;;5104068;28;27412;-63
2021/05/13 06:06:31;;;;;;;5.57;4.40;;;12.40;96.00;;;;;;5103666;28;27463;-63
2021/05/13 06:09:22;;;;;;;6.15;4.90;;;12.60;95.80;;;;;;5103739;28;27410;-63
2021/05/13 06:12:13;;;;;;;5.68;4.85;;;12.80;95.80;;;;;;5103901;28;27426;-63
2021/05/13 06:15:09;;;;;;;6.60;4.75;;;13.00;95.00;;;;;;5103356;28;27449;-63
2021/05/13 06:18:00;;;;;;;6.32;4.97;;;13.20;94.50;;;;;;5103746;28;27393;-64
2021/05/13 06:20:51;;;;;;;5.93;4.70;;;13.50;93.60;;;;;;5103835;28;27917;-64
2021/05/13 06:23:45;;;;;;;4.45;4.05;;;13.70;92.50;;;;;;5103336;28;27453;-63
2021/05/13 06:26:37;;;;;;;4.18;3.78;;;14.00;92.10;;;;;;5104084;28;27439;-63
2021/05/13 06:29:29;;;;;;;6.65;4.72;;;14.30;91.90;;;;;;5104366;28;27387;-63
2021/05/13 06:32:20;;;;;;;6.70;5.18;;;14.50;91.60;;;;;;5104328;28;27395;-63
2021/05/13 06:35:06;;;;;;;6.50;4.85;;;14.70;90.70;;;;;;5104348;28;27580;-63
2021/05/13 06:37:58;;;;;;;8.05;4.93;;;15.00;91.70;;;;;;5104702;27;27419;-64
2021/05/13 06:40:48;;;;;;;5.53;4.47;;;15.30;91.20;;;;;;5107929;28;27327;-64
2021/05/13 06:43:43;;;;;;;4.72;4.07;;;15.50;90.90;;;;;;5104194;28;28004;-63
2021/05/13 06:46:37;;;;;;;5.38;3.83;;;15.80;90.30;;;;;;5092816;28;27511;-63
2021/05/13 06:49:28;;;;;;;8.75;4.43;;;16.00;90.30;;;;;;5107524;28;27442;-64
2021/05/13 06:52:40;;;;;;;9.52;5.22;;;16.20;89.50;;;;;;5107496;28;27321;-64
2021/05/13 06:55:30;;;;;;;5.88;4.30;;;16.30;89.50;;;;;;5106841;28;28149;-64
2021/05/13 06:58:36;;;;;;;5.30;3.85;;;16.50;89.40;;;;;;5107331;28;27498;-63
2021/05/13 07:01:27;;;;;;;5.88;4.30;;;16.70;88.80;;;;;;5114030;27;27347;-64
2021/05/13 07:04:19;;;;;;;5.28;4.55;;;16.90;89.10;;;;;;5124660;27;27363;-64
2021/05/13 07:07:10;;;;;;;4.97;4.30;;;17.10;87.10;;;;;;5127770;27;27438;-63
2021/05/13 07:10:00;;;;;;;4.50;4.10;;;17.30;87.70;;;;;;5127776;27;27380;-64
2021/05/13 07:12:51;;;;;;;5.68;3.88;;;17.50;88.20;;;;;;5128073;27;26892;-63
2021/05/13 07:15:42;;;;;;;7.57;3.88;;;17.70;88.70;;;;;;5127956;27;27462;-63
2021/05/13 07:18:33;;;;;;;6.53;3.03;;;18.00;87.80;;;;;;5127619;27;27313;-63
2021/05/13 07:21:31;;;;;;;3.75;2.88;;;18.20;86.20;;;;;;5127626;27;27428;-63
2021/05/13 07:24:27;;;;;;;5.20;2.85;;;18.50;85.70;;;;;;5124072;27;27381;-62
2021/05/13 07:27:24;;;;;;;4.13;2.17;;;18.80;83.70;;;;;;5100146;27;27542;-63
2021/05/13 07:30:11;;;;;;;3.58;2.40;;;19.10;81.10;;;;;;5127375;27;27837;-62
2021/05/13 07:33:04;;;;;;;3.85;1.98;;;19.30;79.10;;;;;;5127648;27;27470;-62
2021/05/13 07:36:03;;;;;;;4.53;2.38;;;19.60;79.40;;;;;;5125152;27;27489;-63
2021/05/13 07:38:56;;;;;;;4.05;2.60;;;19.80;80.40;;;;;;5124298;27;27483;-62
2021/05/13 07:41:49;;;;;;;2.75;2.10;;;20.10;78.50;;;;;;5124266;27;27375;-62
2021/05/13 07:44:42;;;;;;;5.55;2.70;;;20.30;76.80;;;;;;5098289;27;27527;-63
2021/05/13 07:47:37;;;;;;;4.05;2.22;;;20.50;77.10;;;;;;5127251;27;27332;-63
2021/05/13 07:50:34;;;;;;;4.53;2.08;;;20.70;75.50;;;;;;5127120;27;27370;-63
2021/05/13 07:53:46;;;;;;;4.20;2.20;;;21.00;75.20;;;;;;5123854;27;27926;-63
2021/05/13 07:56:46;;;;;;;3.70;2.13;;;21.20;74.80;;;;;;5126810;27;27477;-63
2021/05/13 07:59:40;;;;;;;2.20;1.65;;;21.60;75.40;;;;;;5099087;27;27467;-63
2021/05/13 08:02:31;;;;;;;2.17;1.92;;;21.80;75.10;;;;;;5105295;28;27430;-63
2021/05/13 08:05:21;;;;;;;2.85;1.77;;;22.10;72.10;;;;;;5090752;28;27468;-63
2021/05/13 08:08:14;;;;;;;3.15;1.90;;;22.30;69.60;;;;;;5106402;28;27434;-63
2021/05/13 08:11:06;;;;;;;4.03;1.63;;;22.40;69.80;;;;;;5090920;28;27463;-63
2021/05/13 08:13:57;;;;;;;3.90;1.27;;;22.50;68.80;;;;;;5106835;28;27322;-63
2021/05/13 08:16:47;;;;;;;2.22;1.30;;;22.60;70.70;;;;;;5106293;28;27468;-64
2021/05/13 08:19:38;;;;;;;2.53;1.60;;;22.90;70.70;;;;;;5106391;28;27396;-63
2021/05/13 08:22:29;;;;;;;2.33;1.30;;;23.00;66.70;;;;;;5106427;28;27457;-63
2021/05/13 08:25:22;;;;;;;3.80;1.42;;;23.20;65.60;;;;;;5105703;28;27327;-63
2021/05/13 08:28:19;;;;;;;2.20;1.20;;;23.30;68.10;;;;;;5076706;28;27496;-64
2021/05/13 08:31:09;;;;;;;3.50;1.40;;;23.50;68.90;;;;;;5077358;28;27515;-63
2021/05/13 08:34:00;;;;;;;2.55;1.45;;;23.70;65.90;;;;;;5105928;28;27419;-63
2021/05/13 08:36:50;;;;;;;3.13;1.35;;;23.90;66.30;;;;;;5105850;28;27381;-62
2021/05/13 08:39:49;;;;;;;2.17;1.10;;;24.00;64.70;;;;;;5105731;28;27426;-63
2021/05/13 08:42:40;;;;;;;1.33;1.00;;;24.20;64.40;;;;;;5105957;28;27332;-63
2021/05/13 08:45:35;;;;;;;1.67;0.90;;;24.30;64.50;;;;;;5106044;28;27322;-63
2021/05/13 08:48:33;;;;;;;3.72;1.25;;;24.40;63.30;;;;;;5105959;28;27481;-63
2021/05/13 08:51:24;;;;;;;3.88;1.20;;;24.50;59.30;;;;;;5105767;28;27378;-63
2021/05/13 08:54:23;;;;;;;1.23;0.88;;;24.60;57.70;;;;;;5102495;28;27409;-63
2021/05/13 08:57:16;;;;;;;2.05;0.85;;;24.80;58.30;;;;;;5105557;28;27393;-63
2021/05/13 09:00:05;;;;;;;3.20;1.15;;;25.00;60.00;;;;;;5088828;27;27468;-63
2021/05/13 09:03:11;;;;;;;4.28;1.10;;;25.20;57.70;;;;;;5103714;28;27578;-63
2021/05/13 09:06:26;;;;;;;3.17;0.80;;;25.30;58.60;;;;;;5104558;28;27470;-63
2021/05/13 09:09:22;;;;;;;2.85;1.00;;;25.60;63.40;;;;;;5105483;28;27430;-63
2021/05/13 09:12:29;;;;;;;2.15;1.10;;;25.70;59.20;;;;;;5105589;28;27470;-63
2021/05/13 09:15:40;;;;;;;3.50;1.17;;;26.00;59.60;;;;;;5103973;28;27450;-62
2021/05/13 09:18:37;;;;;;;2.60;0.90;;;26.10;56.40;;;;;;5102126;28;27453;-62
2021/05/13 09:21:34;;;;;;;1.80;0.80;;;26.20;55.30;;;;;;5105134;28;27486;-63
2021/05/13 09:24:55;;;;;;;1.23;0.90;;;25.90;55.20;;;;;;5105184;28;27466;-62
2021/05/13 09:27:50;;;;;;;1.35;0.70;;;25.20;55.90;;;;;;5101701;28;27458;-63
2021/05/13 09:30:41;;;;;;;1.60;0.80;;;24.40;56.20;;;;;;5105201;28;27412;-62
2021/05/13 09:33:46;;;;;;;1.95;1.02;;;23.70;58.50;;;;;;5105029;28;27392;-62
2021/05/13 09:36:38;;;;;;;2.83;0.90;;;23.10;59.40;;;;;;5104928;28;27334;-62
2021/05/13 09:39:32;;;;;;;1.67;0.73;;;22.60;62.00;;;;;;5104853;28;27479;-62
2021/05/13 09:42:41;;;;;;;1.83;0.77;;;22.30;63.70;;;;;;5104581;28;27435;-62
2021/05/13 09:45:45;;;;;;;1.92;1.17;;;22.10;66.10;;;;;;5104073;28;27407;-62
2021/05/13 09:49:07;;;;;;;1.55;0.85;;;22.20;67.80;;;;;;5104776;28;27331;-62
2021/05/13 09:51:58;;;;;;;25.08;3.03;;;22.30;67.30;;;;;;5103403;28;27626;-62
2021/05/13 09:54:43;;;;;;;3.47;0.90;;;22.20;67.40;;;;;;5101670;28;27406;-63
2021/05/13 09:57:55;;;;;;;1.52;0.88;;;22.10;66.00;;;;;;5104196;28;27335;-62
2021/05/13 10:00:44;;;;;;;4.28;1.13;;;21.90;69.70;;;;;;5104479;27;27354;-62
2021/05/13 10:03:37;;;;;;;1.23;0.70;;;21.80;72.40;;;;;;5124944;27;27342;-62
2021/05/13 10:06:48;;;;;;;1.15;0.90;;;21.70;71.90;;;;;;5110150;27;27521;-62
2021/05/13 10:09:39;;;;;;;5.30;1.10;;;21.50;68.80;;;;;;5125329;27;27470;-63
2021/05/13 10:12:32;;;;;;;2.00;0.90;;;21.40;67.30;;;;;;5110235;27;27398;-63
2021/05/13 10:15:45;;;;;;;3.33;0.80;;;21.30;68.80;;;;;;5128647;27;27332;-62
2021/05/13 10:19:13;;;;;;;0.93;0.80;;;21.10;69.30;;;;;;5128378;27;27462;-62
2021/05/13 10:22:26;;;;;;;4.18;1.10;;;21.00;70.70;;;;;;5128596;27;27317;-62
2021/05/13 10:25:26;;;;;;;4.43;0.70;;;21.00;69.40;;;;;;5128187;27;27434;-62
2021/05/13 10:28:37;;;;;;;2.97;1.23;;;21.10;69.50;;;;;;5128712;27;27427;-62
2021/05/13 10:32:02;;;;;;;2.60;0.80;;;21.10;68.00;;;;;;5128670;27;27355;-62
2021/05/13 10:35:34;;;;;;;2.55;0.75;;;21.20;67.60;;;;;;5128473;27;27347;-62
2021/05/13 10:38:57;;;;;;;2.08;0.57;;;21.20;67.10;;;;;;5127758;27;27414;-62
2021/05/13 10:41:55;;;;;;;0.88;0.70;;;21.30;68.40;;;;;;5124891;27;27313;-62
2021/05/13 10:44:46;;;;;;;1.60;0.70;;;21.20;67.40;;;;;;5128197;27;27408;-62
2021/05/13 10:47:36;;;;;;;1.65;0.80;;;21.10;68.40;;;;;;5127986;27;27428;-62
2021/05/13 10:50:40;;;;;;;0.88;0.50;;;20.90;67.80;;;;;;5128455;27;27329;-62
2021/05/13 10:53:42;;;;;;;0.57;0.50;;;20.80;68.40;;;;;;5113964;27;27876;-62
2021/05/13 10:56:37;;;;;;;1.63;0.60;;;20.50;69.20;;;;;;5127955;27;27470;-61
2021/05/13 10:59:21;;;;;;;1.13;0.50;;;20.30;69.00;;;;;;5128000;27;27411;-62
2021/05/13 11:02:54;;;;;;;1.23;0.63;;;20.20;70.70;;;;;;5127121;27;26998;-62
2021/05/13 11:05:49;;;;;;;1.38;0.40;;;20.00;70.60;;;;;;5024752;28;27982;-62
2021/05/13 11:08:47;;;;;;;3.03;0.80;;;19.80;71.10;;;;;;5025071;28;27430;-59
2021/05/13 11:12:13;;;;;;;1.38;0.75;;;19.70;71.80;;;;;;5024765;28;27574;-61
2021/05/13 11:18:02;;;;;;;1.30;0.70;;;19.40;73.30;;;;;;5024905;28;27864;-60
2021/05/13 11:20:58;;;;;;;1.00;0.57;;;19.40;74.30;;;;;;5024647;28;27492;-61
2021/05/13 11:23:51;;;;;;;1.05;0.60;;;19.40;73.60;;;;;;5023883;28;27565;-61
2021/05/13 11:26:54;;;;;;;1.08;0.70;;;19.50;74.10;;;;;;5024781;28;27432;-61
2021/05/13 11:30:02;;;;;;;0.38;0.38;;;19.60;75.00;;;;;;5024583;28;27818;-61
2021/05/13 11:32:53;;;;;;;1.55;0.80;;;19.70;75.30;;;;;;5024101;28;27457;-61
2021/05/13 11:36:04;;;;;;;2.83;0.95;;;19.90;74.70;;;;;;5024296;28;27497;-61
2021/05/13 11:39:17;;;;;;;1.65;0.50;;;20.00;73.00;;;;;;5024467;28;27469;-61
2021/05/13 11:42:09;;;;;;;2.08;0.80;;;20.20;71.60;;;;;;5072323;27;27832;-61
2021/05/13 11:45:22;;;;;;;0.68;0.40;;;20.30;71.00;;;;;;5127305;27;27534;-61
2021/05/13 11:49:01;;;;;;;1.42;0.60;;;20.30;69.90;;;;;;5127258;27;27379;-61
2021/05/13 11:52:33;;;;;;;2.78;0.60;;;20.30;69.20;;;;;;5127207;27;27417;-60
2021/05/13 11:56:01;;;;;;;2.65;0.50;;;20.20;69.10;;;;;;5123769;27;27411;-59
2021/05/13 11:59:12;;;;;;;1.15;0.50;;;20.10;69.20;;;;;;5127305;27;27469;-60
2021/05/13 12:02:19;;;;;;;1.67;0.50;;;20.00;68.70;;;;;;5126136;27;27344;-62
2021/05/13 12:05:06;;;;;;;1.85;0.60;;;19.80;71.50;;;;;;5111485;27;27380;-62
2021/05/13 12:08:11;;;;;;;1.35;0.40;;;19.70;71.50;;;;;;5111780;27;27473;-62
2021/05/13 12:11:01;;;;;;;1.58;0.75;;;19.50;72.40;;;;;;5126598;27;27626;-62
2021/05/13 12:13:52;;;;;;;2.95;0.70;;;19.40;72.40;;;;;;5123820;27;27301;-62
2021/05/13 12:16:43;;;;;;;0.63;0.40;;;19.40;73.00;;;;;;5127048;27;27453;-62
2021/05/13 12:19:55;;;;;;;1.10;0.55;;;19.30;73.30;;;;;;5126664;27;27369;-62
2021/05/13 12:22:40;;;;;;;0.90;0.80;;;19.30;72.50;;;;;;5126913;27;27333;-62
2021/05/13 12:25:42;;;;;;;0.98;0.40;;;19.30;72.50;;;;;;5126385;27;27506;-62
2021/05/13 12:28:34;;;;;;;1.65;0.50;;;19.20;72.20;;;;;;5126902;27;26915;-62
2021/05/13 12:31:33;;;;;;;0.63;0.50;;;19.20;72.80;;;;;;5126766;27;27362;-62
2021/05/13 12:34:56;;;;;;;2.75;0.52;;;19.30;72.90;;;;;;5126704;27;27470;-61
2021/05/13 12:38:36;;;;;;;1.20;0.57;;;19.30;72.90;;;;;;5125799;27;26968;-62
2021/05/13 12:41:32;;;;;;;1.25;0.52;;;19.40;72.10;;;;;;5126351;27;27410;-62
2021/05/13 12:44:26;;;;;;;1.05;0.50;;;19.50;71.40;;;;;;5126358;27;27833;-62
2021/05/13 12:47:53;;;;;;;0.50;0.40;;;19.50;70.60;;;;;;5126260;27;27321;-62
2021/05/13 12:50:58;;;;;;;0.57;0.40;;;19.60;70.50;;;;;;5126245;27;27415;-61
2021/05/13 12:54:07;;;;;;;1.25;0.60;;;19.70;71.10;;;;;;5126210;27;27345;-61
2021/05/13 12:57:15;;;;;;;0.95;0.40;;;19.80;70.10;;;;;;5110809;27;27515;-61
2021/05/13 13:00:33;;;;;;;0.57;0.40;;;19.90;70.50;;;;;;5096740;27;27349;-61
2021/05/13 13:03:38;;;;;;;1.08;0.32;;;20.00;71.20;;;;;;5124197;27;27636;-62
2021/05/13 13:06:31;;;;;;;0.43;0.40;;;20.10;70.80;;;;;;5113217;27;27471;-62
2021/05/13 13:09:49;;;;;;;0.52;0.32;;;20.10;70.60;;;;;;5096250;27;27915;-62
2021/05/13 13:12:39;;;;;;;0.70;0.40;;;20.10;70.30;;;;;;5125770;27;27606;-62
2021/05/13 13:15:38;;;;;;;1.13;0.47;;;20.10;70.90;;;;;;5126153;27;27414;-62
2021/05/13 13:18:35;;;;;;;0.52;0.43;;;20.10;70.40;;;;;;5125820;27;27321;-62
2021/05/13 13:21:32;;;;;;;0.50;0.30;;;20.10;69.90;;;;;;5126036;27;27390;-62
2021/05/13 13:24:20;;;;;;;0.52;0.40;;;20.00;70.00;;;;;;5125756;27;27474;-62
2021/05/13 13:27:16;;;;;;;0.47;0.40;;;19.90;70.60;;;;;;5110673;27;27480;-63
2021/05/13 13:30:21;;;;;;;1.40;0.40;;;19.90;71.60;;;;;;5124772;27;27380;-63
2021/05/13 13:33:39;;;;;;;2.53;0.68;;;20.00;71.20;;;;;;5125544;27;27404;-63
2021/05/13 13:36:36;;;;;;;0.45;0.30;;;20.00;70.10;;;;;;5125002;27;27539;-63
2021/05/13 13:39:27;;;;;;;1.35;0.40;;;20.10;69.20;;;;;;5125621;27;27478;-63
2021/05/13 13:42:18;;;;;;;1.10;0.60;;;20.10;69.30;;;;;;5125361;27;27370;-63
2021/05/13 13:45:16;;;;;;;3.35;0.65;;;20.20;69.00;;;;;;5110306;27;27482;-62
2021/05/13 13:48:09;;;;;;;0.98;0.40;;;20.10;68.80;;;;;;5125454;27;27376;-62
2021/05/13 13:51:07;;;;;;;1.02;0.40;;;20.10;68.60;;;;;;5125625;27;27434;-63
2021/05/13 13:54:04;;;;;;;0.60;0.50;;;20.00;67.20;;;;;;5083200;27;27485;-62
2021/05/13 13:57:03;;;;;;;2.65;0.70;;;19.90;67.30;;;;;;5124910;27;27476;-62
2021/05/13 14:00:00;;;;;;;2.60;0.80;;;19.90;66.60;;;;;;5082753;27;27506;-62
2021/05/13 14:02:51;;;;;;;2.55;0.57;;;19.70;67.10;;;;;;5124516;27;27404;-62
2021/05/13 14:05:42;;;;;;;0.80;0.77;;;19.70;67.50;;;;;;5125455;27;27411;-62
2021/05/13 14:08:32;;;;;;;1.58;0.60;;;19.50;67.60;;;;;;5125048;27;27865;-62
2021/05/13 14:11:17;;;;;;;1.85;0.60;;;19.40;68.20;;;;;;5124963;27;27478;-62
2021/05/13 14:14:08;;;;;;;2.03;0.90;;;19.30;68.80;;;;;;5125337;27;27423;-62
2021/05/13 14:16:59;;;;;;;2.92;0.90;;;19.20;69.20;;;;;;5125290;27;27382;-62
2021/05/13 14:20:11;;;;;;;4.13;0.98;;;19.10;71.60;;;;;;5125161;27;27597;-62
2021/05/13 14:23:01;;;;;;;2.55;0.98;;;19.00;71.30;;;;;;5125109;27;27466;-61
2021/05/13 14:25:58;;;;;;;1.48;0.85;;;19.00;72.50;;;;;;5124900;27;27329;-60
2021/05/13 14:28:52;;;;;;;1.02;0.70;;;18.80;72.40;;;;;;5121528;27;27360;-62
2021/05/13 14:31:47;;;;;;;1.45;1.17;;;18.80;73.30;;;;;;5124657;27;27438;-60
2021/05/13 14:34:38;;;;;;;2.33;0.82;;;18.80;72.80;;;;;;5106341;27;27372;-61
2021/05/13 14:37:30;;;;;;;3.78;1.00;;;18.70;73.70;;;;;;5124760;27;27415;-62
2021/05/13 14:41:00;;;;;;;0.63;0.57;;;18.70;73.50;;;;;;5121089;27;27325;-62
2021/05/13 14:43:51;;;;;;;0.55;0.50;;;18.70;73.70;;;;;;5121354;27;27340;-62
2021/05/13 14:46:42;;;;;;;1.13;0.70;;;18.70;73.30;;;;;;5124511;27;27500;-61
2021/05/13 14:49:39;;;;;;;3.92;0.60;;;18.70;72.80;;;;;;5124811;27;27420;-62
2021/05/13 14:52:36;;;;;;;0.75;0.50;;;18.70;73.30;;;;;;5124866;27;27382;-62
2021/05/13 14:55:32;;;;;;;0.50;0.40;;;18.70;73.00;;;;;;5124295;27;27965;-61
2021/05/13 14:58:23;;;;;;;1.75;0.63;;;18.70;73.10;;;;;;5125104;27;27399;-61
2021/05/13 15:01:15;;;;;;;0.77;0.45;;;18.60;72.90;;;;;;5109711;27;27329;-62
2021/05/13 15:04:06;;;;;;;0.30;0.30;;;18.60;72.80;;;;;;5128090;27;27454;-61
2021/05/13 15:06:56;;;;;;;1.38;0.57;;;18.60;73.60;;;;;;5124837;27;27462;-62
2021/05/13 15:09:47;;;;;;;0.95;0.50;;;18.50;73.50;;;;;;5112902;27;27407;-63
2021/05/13 15:12:38;;;;;;;0.68;0.60;;;18.50;73.40;;;;;;5109536;27;27459;-62
2021/05/13 15:15:35;;;;;;;6.95;1.50;;;18.50;73.50;;;;;;5127821;27;27392;-62
2021/05/13 15:18:51;;;;;;;0.40;0.40;;;18.50;73.50;;;;;;5127963;27;27328;-62
2021/05/13 15:21:44;;;;;;;1.08;0.60;;;18.50;73.30;;;;;;5127042;27;27411;-62
2021/05/13 15:24:34;;;;;;;0.82;0.73;;;18.50;72.80;;;;;;5127537;27;27332;-62
2021/05/13 15:27:47;;;;;;;0.93;0.82;;;18.50;72.80;;;;;;5127679;27;26943;-62
2021/05/13 15:30:49;;;;;;;0.73;0.70;;;18.50;73.10;;;;;;5127563;27;27455;-62